Signal Mountain, TN

9:10 PM EDT on August 31, 2015 (GMT -0400)
Shackleford Ridge | | Change Station
CLOSE
Current Station
Personal Weather Station
Location: Signal Mountain, TN
Elevation: 2010 ft
Nearby Weather Stations

Elev 2010 ft 35.17 °N, 85.34 °W | Updated 16 seconds ago

Clear
Clear
69.4 °F
Feels Like 69.4 °F
N
0.0
Wind Variable Wind from ENE
Gusts 0.0 mph

Today
High -- | Low -- °F
--% Chance of Precip.
Yesterday
High -- | Low -- °F
Precip. -- in
7:12 AM 8:09 PM
Waning Gibbous, 92% visible
Pressure 30.06 in
Visibility 10.0 miles
Clouds Few 7500 ft
Few 25000 ft
Dew Point 64 °F
Humidity 83%
Rainfall 0.00 in
Snow Depth Not available.
UV 0 out of 12
Pollen 8.50 out of 12
Air Quality Not available.
Flu Activity Not available.
METAR KCHA 010053Z 00000KT 10SM FEW075 FEW250 25/19 A3008 RMK AO2 SLP180 T02500194
Pressure 30.06 in
Visibility 10.0 miles
Clouds Few 7500 ft
Few 25000 ft
Dew Point 64 °F
Humidity 83%
Rainfall 0.00 in
Snow Depth Not available.
UV 0 out of 12
Pollen 8.50 out of 12
Air Quality Not available.
Flu Activity Not available.
METAR KCHA 010053Z 00000KT 10SM FEW075 FEW250 25/19 A3008 RMK AO2 SLP180 T02500194

10-Day Weather Forecast

×

Almanac

Astronomy

Aug. 31, 2015 Rise Set
Actual Time
Civil Twilight
Nautical Twilight
Astronomical Twilight
Moon
Length of Visible Light
Length of Day
Tomorrow will be .
, % of the Moon is Illuminated

Today's Extremes

State Highs State Lows

Community

WunderPhotos

Upload Photos

1,851,413 photos uploaded!

WunderBlogs® & News

Nearby

Air Quality

  Air Quality AQ Index Pollutant
Not available.

Snow Depth

Station Depth Elevation

Earthquake Activity

City Distance Mag. Time & Date
Minimum magnitude displayed is 2.5.

Coastal Water Temperatures

Place Temperature

Stations

Nearby Weather Stations

Station Location Temp. Windchill Dew Point Humidity Wind Precip. Elev Updated Type